createdAt,value
2017-10-23T00:02:34.230Z,100826.78
2017-10-23T00:05:09.800Z,100827.77
2017-10-23T00:07:45.903Z,100823.31
2017-10-23T00:10:37.797Z,100827.71
2017-10-23T00:19:12.400Z,100827.01
2017-10-23T00:21:45.931Z,100825.61
2017-10-23T00:24:18.123Z,100825.04
2017-10-23T00:26:54.579Z,100821.30
2017-10-23T00:29:26.402Z,100826.23
2017-10-23T00:31:58.899Z,100818.78
2017-10-23T00:34:32.797Z,100822.84
2017-10-23T00:37:08.608Z,100819.86
2017-10-23T00:39:42.441Z,100823.75
2017-10-23T00:42:23.757Z,100825.98
2017-10-23T00:44:58.738Z,100833.40
2017-10-23T00:47:31.979Z,100833.30
2017-10-23T00:50:07.519Z,100839.86
2017-10-23T00:52:39.103Z,100838.59
2017-10-23T00:55:13.144Z,100836.98
2017-10-23T00:57:48.481Z,100844.86
2017-10-23T01:00:23.676Z,100843.55
2017-10-23T01:02:57.476Z,100841.85
2017-10-23T01:05:30.351Z,100841.06
2017-10-23T01:08:04.972Z,100844.61
2017-10-23T01:10:37.719Z,100846.40
2017-10-23T01:13:09.783Z,100844.71
2017-10-23T01:15:44.345Z,100846.05
2017-10-23T01:18:17.469Z,100848.23
2017-10-23T01:20:51.453Z,100850.97
2017-10-23T01:23:24.263Z,100842.98
2017-10-23T01:25:59.208Z,100848.69
2017-10-23T01:28:30.647Z,100848.44
2017-10-23T01:31:04.918Z,100842.28
2017-10-23T01:33:36.760Z,100838.88
2017-10-23T01:36:08.922Z,100842.05
2017-10-23T01:38:43.250Z,100839.88
2017-10-23T01:41:16.973Z,100832.48
2017-10-23T01:43:49.502Z,100838.84
2017-10-23T01:46:20.975Z,100835.51
2017-10-23T01:48:55.298Z,100834.22
2017-10-23T01:51:28.468Z,100844.62
2017-10-23T01:54:03.049Z,100843.30
2017-10-23T01:56:40.015Z,100838.58
2017-10-23T01:59:12.236Z,100840.52
2017-10-23T02:01:43.550Z,100842.89
2017-10-23T02:04:15.203Z,100845.45
2017-10-23T02:06:46.648Z,100848.17
2017-10-23T02:09:22.637Z,100848.27
2017-10-23T02:11:56.977Z,100852.18
2017-10-23T02:14:28.286Z,100856.11
2017-10-23T02:17:03.491Z,100854.70
2017-10-23T02:19:34.915Z,100863.36
2017-10-23T02:22:11.273Z,100860.64
2017-10-23T02:24:42.655Z,100865.08
2017-10-23T02:27:14.985Z,100864.30
2017-10-23T02:29:47.653Z,100861.19
2017-10-23T02:32:21.817Z,100857.76
2017-10-23T02:34:55.924Z,100864.75
2017-10-23T02:37:28.349Z,100861.63
2017-10-23T02:40:01.677Z,100859.07
2017-10-23T02:42:35.654Z,100865.22
2017-10-23T02:45:10.592Z,100867.94
2017-10-23T02:47:43.841Z,100871.52
2017-10-23T02:50:30.735Z,100869.41
2017-10-23T02:53:08.217Z,100864.17
2017-10-23T02:55:43.283Z,100859.71
2017-10-23T02:58:20.981Z,100866.34
2017-10-23T03:01:01.985Z,100867.11
2017-10-23T03:06:47.254Z,100863.80
2017-10-23T03:09:19.073Z,100862.66
2017-10-23T03:11:51.017Z,100864.33
2017-10-23T03:14:22.729Z,100867.87
2017-10-23T03:16:54.317Z,100876.72
2017-10-23T03:19:25.717Z,100878.37
2017-10-23T03:21:57.368Z,100872.20
2017-10-23T03:24:28.783Z,100876.48
2017-10-23T03:27:00.195Z,100885.66
2017-10-23T03:29:31.840Z,100879.98
2017-10-23T03:32:04.467Z,100880.05
2017-10-23T03:34:36.089Z,100881.37
2017-10-23T03:37:07.576Z,100886.95
2017-10-23T03:39:39.225Z,100887.28
2017-10-23T03:42:10.995Z,100888.02
2017-10-23T03:44:43.485Z,100895.46
2017-10-23T03:47:15.251Z,100895.44
2017-10-23T03:49:46.560Z,100896.77
2017-10-23T03:52:17.982Z,100900.71
2017-10-23T03:54:49.633Z,100903.41
2017-10-23T03:57:21.019Z,100906.39
2017-10-23T03:59:52.625Z,100913.45
2017-10-23T04:02:24.314Z,100909.95
2017-10-23T04:04:55.703Z,100912.07
2017-10-23T04:07:27.460Z,100909.25
2017-10-23T04:09:58.960Z,100914.43
2017-10-23T04:12:30.408Z,100916.41
2017-10-23T04:15:02.439Z,100911.16
2017-10-23T04:17:33.831Z,100914.33
2017-10-23T04:20:06.500Z,100915.27
2017-10-23T04:22:38.472Z,100915.22
2017-10-23T04:25:09.916Z,100916.95
2017-10-23T04:27:42.735Z,100920.02
2017-10-23T04:30:14.420Z,100923.44
2017-10-23T04:32:45.779Z,100928.13
2017-10-23T04:35:17.136Z,100933.28
2017-10-23T04:37:48.605Z,100934.06
2017-10-23T04:40:20.071Z,100935.58
2017-10-23T04:42:51.763Z,100933.72
2017-10-23T04:45:23.151Z,100934.12
2017-10-23T04:47:54.564Z,100931.95
2017-10-23T04:50:25.974Z,100935.58
2017-10-23T04:52:57.377Z,100935.64
2017-10-23T04:55:29.101Z,100932.08
2017-10-23T04:58:00.552Z,100936.23
2017-10-23T05:00:32.341Z,100928.72
2017-10-23T05:03:04.643Z,100932.95
2017-10-23T05:05:36.034Z,100931.70
2017-10-23T05:08:07.712Z,100928.31
2017-10-23T05:10:39.631Z,100931.36
2017-10-23T05:13:11.542Z,100930.98
2017-10-23T05:15:44.676Z,100934.09
2017-10-23T05:18:16.458Z,100934.19
2017-10-23T05:20:47.928Z,100931.89
2017-10-23T05:23:19.676Z,100938.91
2017-10-23T05:25:51.245Z,100937.67
2017-10-23T05:28:22.764Z,100944.76
2017-10-23T05:30:54.487Z,100944.21
2017-10-23T05:33:25.908Z,100945.09
2017-10-23T05:35:57.611Z,100948.55
2017-10-23T05:38:29.135Z,100946.31
2017-10-23T05:41:00.796Z,100947.09
2017-10-23T05:43:32.553Z,100950.70
2017-10-23T05:46:04.872Z,100947.02
2017-10-23T05:48:36.545Z,100947.40
2017-10-23T05:51:07.972Z,100947.71
2017-10-23T05:53:40.303Z,100948.59
2017-10-23T05:56:12.149Z,100950.67
2017-10-23T05:58:44.987Z,100950.48
2017-10-23T06:01:16.702Z,100954.34
2017-10-23T06:03:48.100Z,100954.70
2017-10-23T06:06:19.841Z,100957.16
2017-10-23T06:08:52.213Z,100950.88
2017-10-23T06:11:24.279Z,100959.23
2017-10-23T06:13:57.278Z,100973.34
2017-10-23T06:16:29.281Z,100965.80
2017-10-23T06:19:04.343Z,100980.17
2017-10-23T06:21:35.897Z,100982.17
2017-10-23T06:24:07.393Z,100980.16
2017-10-23T06:26:40.336Z,100983.98
2017-10-23T06:29:11.848Z,100984.59
2017-10-23T06:31:44.816Z,100988.09
2017-10-23T06:34:16.256Z,100987.93
2017-10-23T06:36:47.667Z,100991.63
2017-10-23T06:39:19.332Z,100991.06
2017-10-23T06:41:51.691Z,100986.08
2017-10-23T06:44:23.412Z,100990.69
2017-10-23T06:46:54.763Z,100990.69
2017-10-23T06:49:27.057Z,100991.92
2017-10-23T06:51:58.797Z,100991.62
2017-10-23T06:54:31.091Z,100998.82
2017-10-23T06:57:03.796Z,100992.70
2017-10-23T06:59:35.262Z,100995.48
2017-10-23T07:02:07.019Z,100999.20
2017-10-23T07:04:38.628Z,100999.55
2017-10-23T07:07:10.049Z,100997.53
2017-10-23T07:09:43.053Z,101007.72
2017-10-23T07:12:14.406Z,101003.61
2017-10-23T07:14:47.524Z,100997.09
2017-10-23T07:17:18.958Z,101008.06
2017-10-23T07:19:50.400Z,101007.41
2017-10-23T07:22:22.140Z,101009.06
2017-10-23T07:24:53.511Z,101013.09
2017-10-23T07:27:25.113Z,101022.92
2017-10-23T07:29:56.850Z,101011.24
2017-10-23T07:32:28.942Z,101022.25
2017-10-23T07:35:00.270Z,101024.64
2017-10-23T07:37:31.913Z,101023.80
2017-10-23T07:40:04.240Z,101030.40
2017-10-23T07:45:20.925Z,101033.39
2017-10-23T07:47:52.250Z,101042.97
2017-10-23T07:50:23.970Z,101042.73
2017-10-23T07:52:55.563Z,101041.66
2017-10-23T07:55:26.942Z,101038.28
2017-10-23T07:57:58.667Z,101043.52
2017-10-23T08:00:30.064Z,101042.25
2017-10-23T08:03:03.363Z,101043.62
2017-10-23T08:05:34.983Z,101045.38
2017-10-23T08:08:06.560Z,101043.06
2017-10-23T08:10:38.375Z,101046.69
2017-10-23T08:13:11.503Z,101048.92
2017-10-23T08:15:45.414Z,101047.58
2017-10-23T08:20:57.698Z,101048.44
2017-10-23T08:23:32.144Z,101048.28
2017-10-23T08:26:05.406Z,101050.67
2017-10-23T08:28:37.089Z,101055.27
2017-10-23T08:31:08.459Z,101059.78
2017-10-23T08:33:41.319Z,101055.91
2017-10-23T08:36:12.718Z,101057.60
2017-10-23T08:38:46.034Z,101052.63
2017-10-23T08:41:17.695Z,101057.98
2017-10-23T08:43:49.235Z,101061.88
2017-10-23T08:46:21.022Z,101060.39
2017-10-23T08:48:52.704Z,101062.41
2017-10-23T08:51:24.685Z,101068.20
2017-10-23T08:53:57.222Z,101060.30
2017-10-23T08:56:28.614Z,101064.58
2017-10-23T08:59:00.103Z,101058.70
2017-10-23T09:01:31.798Z,101056.12
2017-10-23T09:04:04.129Z,101050.71
2017-10-23T09:06:35.770Z,101056.01
2017-10-23T09:09:07.685Z,101053.92
2017-10-23T09:19:47.017Z,101058.39
2017-10-23T09:22:18.329Z,101065.58
2017-10-23T09:24:50.188Z,101064.55
2017-10-23T09:27:21.574Z,101060.09
2017-10-23T09:29:52.884Z,101058.92
2017-10-23T09:32:25.358Z,101055.98
2017-10-23T09:34:57.574Z,101064.11
2017-10-23T09:37:29.209Z,101063.75
2017-10-23T09:40:00.825Z,101057.49
2017-10-23T09:42:32.320Z,101055.97
2017-10-23T09:45:08.062Z,101062.19
2017-10-23T09:47:40.920Z,101055.42
2017-10-23T09:50:12.856Z,101064.25
2017-10-23T09:52:45.613Z,101061.17
2017-10-23T09:55:16.945Z,101058.40
2017-10-23T09:57:49.829Z,101067.92
2017-10-23T10:00:21.207Z,101068.02
2017-10-23T10:02:52.922Z,101068.48
2017-10-23T10:05:24.817Z,101069.45
2017-10-23T10:07:56.179Z,101080.52
2017-10-23T10:16:54.759Z,101084.86
2017-10-23T10:19:28.434Z,101088.56
2017-10-23T10:22:00.287Z,101079.20
2017-10-23T10:24:32.335Z,101086.65
2017-10-23T10:27:07.572Z,101089.47
2017-10-23T10:29:39.118Z,101087.34
2017-10-23T10:32:10.896Z,101087.17
2017-10-23T10:34:42.891Z,101094.56
2017-10-23T10:37:15.387Z,101099.50
2017-10-23T10:39:47.073Z,101106.84
2017-10-23T10:51:24.519Z,101117.06
2017-10-23T10:53:55.930Z,101116.91
2017-10-23T10:56:27.592Z,101117.89
2017-10-23T10:58:58.945Z,101108.56
2017-10-23T11:01:30.310Z,101112.31
2017-10-23T11:04:02.916Z,101110.12
2017-10-23T11:06:34.335Z,101108.23
2017-10-23T11:09:08.248Z,101115.52
2017-10-23T11:14:44.669Z,101115.03
2017-10-23T11:17:16.593Z,101110.14
2017-10-23T11:19:48.258Z,101111.27
2017-10-23T11:22:19.608Z,101111.20
2017-10-23T11:24:51.313Z,101110.70
2017-10-23T11:27:22.647Z,101110.59
2017-10-23T11:29:54.689Z,101104.80
2017-10-23T11:32:26.348Z,101113.09
2017-10-23T11:34:57.832Z,101110.38
2017-10-23T11:40:34.766Z,101113.23
2017-10-23T11:43:06.421Z,101116.25
2017-10-23T11:45:38.151Z,101124.03
2017-10-23T11:48:09.478Z,101116.80
2017-10-23T11:50:40.800Z,101120.91
2017-10-23T11:53:12.663Z,101109.80
2017-10-23T11:55:44.980Z,101114.14
2017-10-23T11:58:17.255Z,101113.05
2017-10-23T12:00:49.023Z,101105.37
2017-10-23T12:03:20.368Z,101114.71
2017-10-23T12:05:51.757Z,101107.58
2017-10-23T12:08:23.746Z,101108.45
2017-10-23T12:14:00.569Z,101101.23
2017-10-23T12:16:32.314Z,101102.11
2017-10-23T12:19:04.374Z,101096.92
2017-10-23T12:21:35.708Z,101104.24
2017-10-23T12:24:09.609Z,101106.73
2017-10-23T12:26:41.307Z,101101.77
2017-10-23T12:29:12.708Z,101108.84
2017-10-23T12:31:44.214Z,101110.38
2017-10-23T12:34:16.186Z,101107.05
2017-10-23T12:36:47.582Z,101105.13
2017-10-23T12:39:19.210Z,101100.25
2017-10-23T12:41:51.245Z,101099.75
2017-10-23T12:44:24.973Z,101101.55
2017-10-23T12:46:56.762Z,101094.37
2017-10-23T12:49:28.884Z,101096.79
2017-10-23T12:52:02.180Z,101100.28
2017-10-23T12:54:34.579Z,101096.12
2017-10-23T12:57:06.076Z,101104.63
2017-10-23T12:59:37.651Z,101098.75
2017-10-23T13:02:10.250Z,101101.47
2017-10-23T13:04:42.168Z,101097.42
2017-10-23T13:07:26.194Z,101099.02
2017-10-23T13:15:49.379Z,101107.87
2017-10-23T13:18:20.892Z,101110.72
2017-10-23T13:20:53.055Z,101112.47
2017-10-23T13:23:25.501Z,101110.18
2017-10-23T13:26:06.669Z,101107.38
2017-10-23T13:31:43.435Z,101102.69
2017-10-23T13:34:15.524Z,101095.61
2017-10-23T13:36:47.217Z,101103.58
2017-10-23T13:39:18.571Z,101102.19
2017-10-23T13:41:49.951Z,101092.50
2017-10-23T13:44:21.405Z,101099.78
2017-10-23T13:46:52.978Z,101097.30
2017-10-23T13:49:24.614Z,101099.25
2017-10-23T13:51:56.573Z,101096.64
2017-10-23T13:54:27.961Z,101094.78
2017-10-23T13:57:00.448Z,101098.92
2017-10-23T13:59:31.788Z,101102.19
2017-10-23T14:02:05.448Z,101107.28
2017-10-23T14:04:37.172Z,101107.94
2017-10-23T14:07:08.694Z,101105.52
2017-10-23T14:18:27.916Z,101105.35
2017-10-23T14:21:01.215Z,101110.94
2017-10-23T14:23:33.940Z,101115.97
2017-10-23T14:26:06.492Z,101108.23
2017-10-23T14:28:39.205Z,101112.77
2017-10-23T14:31:11.986Z,101107.58
2017-10-23T14:33:43.461Z,101114.80
2017-10-23T14:36:15.881Z,101119.90
2017-10-23T14:38:48.510Z,101117.00
2017-10-23T14:41:20.060Z,101118.70
2017-10-23T14:43:52.594Z,101114.07
2017-10-23T14:46:24.368Z,101116.47
2017-10-23T14:48:58.388Z,101113.19
2017-10-23T14:51:30.207Z,101116.08
2017-10-23T14:54:03.089Z,101114.34
2017-10-23T14:56:34.557Z,101113.08
2017-10-23T14:59:07.302Z,101118.88
2017-10-23T15:01:38.799Z,101120.73
2017-10-23T15:04:11.454Z,101123.83
2017-10-23T15:06:42.861Z,101117.99
2017-10-23T15:09:14.525Z,101126.90
2017-10-23T15:11:46.193Z,101126.06
2017-10-23T15:14:17.607Z,101126.56
2017-10-23T15:16:48.949Z,101136.20
2017-10-23T15:19:20.886Z,101135.52
2017-10-23T15:21:53.950Z,101137.39
2017-10-23T15:24:25.785Z,101137.06
2017-10-23T15:26:59.473Z,101129.81
2017-10-23T15:29:31.081Z,101131.69
2017-10-23T15:32:03.924Z,101130.02
2017-10-23T15:34:35.573Z,101129.19
2017-10-23T15:37:07.189Z,101137.78
2017-10-23T15:39:38.879Z,101143.24
2017-10-23T15:42:10.273Z,101146.77
2017-10-23T15:44:42.869Z,101144.13
2017-10-23T15:47:14.321Z,101139.41
2017-10-23T15:49:46.159Z,101153.03
2017-10-23T15:52:17.543Z,101154.90
2017-10-23T15:54:48.884Z,101158.92
2017-10-23T15:57:20.661Z,101154.61
2017-10-23T15:59:52.580Z,101157.80
2017-10-23T16:02:24.143Z,101157.44
2017-10-23T16:04:58.539Z,101154.94
2017-10-23T16:07:30.000Z,101156.29
2017-10-23T16:16:07.265Z,101163.50
2017-10-23T16:18:38.564Z,101164.66
2017-10-23T16:21:10.245Z,101161.30
2017-10-23T16:23:41.565Z,101167.64
2017-10-23T16:26:12.981Z,101170.50
2017-10-23T16:28:44.605Z,101178.96
2017-10-23T16:34:17.580Z,101175.14
2017-10-23T16:36:48.991Z,101178.27
2017-10-23T16:39:20.609Z,101181.08
2017-10-23T16:41:52.008Z,101184.66
2017-10-23T16:44:23.392Z,101192.69
2017-10-23T16:46:55.033Z,101190.02
2017-10-23T16:49:26.447Z,101189.62
2017-10-23T16:51:58.107Z,101198.94
2017-10-23T16:54:29.917Z,101204.77
2017-10-23T16:57:03.748Z,101205.32
2017-10-23T16:59:35.366Z,101209.59
2017-10-23T17:02:06.729Z,101214.41
2017-10-23T17:04:38.637Z,101214.95
2017-10-23T17:07:10.876Z,101215.78
2017-10-23T17:09:42.383Z,101215.32
2017-10-23T17:12:15.840Z,101218.07
2017-10-23T17:14:47.152Z,101221.25
2017-10-23T17:17:18.517Z,101226.63
2017-10-23T17:19:49.836Z,101230.70
2017-10-23T17:22:21.295Z,101229.47
2017-10-23T17:24:53.732Z,101225.16
2017-10-23T17:27:25.137Z,101229.44
2017-10-23T17:29:56.823Z,101233.05
2017-10-23T17:32:28.204Z,101244.19
2017-10-23T17:35:02.369Z,101241.17
2017-10-23T17:37:33.755Z,101254.03
2017-10-23T17:40:06.243Z,101253.17
2017-10-23T17:42:37.954Z,101249.22
2017-10-23T17:45:09.298Z,101257.98
2017-10-23T17:47:40.760Z,101262.74
2017-10-23T17:50:12.612Z,101265.25
2017-10-23T17:52:43.968Z,101267.88
2017-10-23T17:55:15.300Z,101273.61
2017-10-23T17:57:47.028Z,101269.28
2017-10-23T18:00:19.242Z,101274.66
2017-10-23T18:02:50.859Z,101276.11
2017-10-23T18:05:22.366Z,101280.93
2017-10-23T18:07:53.695Z,101279.20
2017-10-23T18:16:22.318Z,101286.85
2017-10-23T18:18:54.883Z,101287.77
2017-10-23T18:21:27.223Z,101291.37
2017-10-23T18:23:59.234Z,101287.98
2017-10-23T18:26:30.700Z,101299.49
2017-10-23T18:29:02.704Z,101298.30
2017-10-23T18:31:46.788Z,101292.20
2017-10-23T18:34:56.012Z,101292.25
2017-10-23T18:37:27.575Z,101294.16
2017-10-23T18:39:58.976Z,101300.23
2017-10-23T18:42:30.711Z,101295.48
2017-10-23T18:45:02.744Z,101300.77
2017-10-23T18:47:34.371Z,101300.02
2017-10-23T18:50:06.958Z,101297.87
2017-10-23T18:52:38.459Z,101302.25
2017-10-23T18:58:25.763Z,101312.84
2017-10-23T19:00:57.915Z,101313.81
2017-10-23T19:03:29.995Z,101310.70
2017-10-23T19:06:01.688Z,101308.52
2017-10-23T19:08:34.519Z,101304.94
2017-10-23T19:17:17.483Z,101310.19
2017-10-23T19:19:48.896Z,101314.65
2017-10-23T19:22:20.719Z,101312.55
2017-10-23T19:24:52.572Z,101319.59
2017-10-23T19:27:24.228Z,101317.49
2017-10-23T19:29:55.705Z,101323.19
2017-10-23T19:32:27.663Z,101317.44
2017-10-23T19:34:59.277Z,101319.48
2017-10-23T19:37:30.834Z,101324.78
2017-10-23T19:43:52.832Z,101328.76
2017-10-23T19:49:29.849Z,101329.83
2017-10-23T19:52:01.240Z,101328.48
2017-10-23T19:56:55.757Z,101324.56
2017-10-23T19:59:27.528Z,101332.52
2017-10-23T20:01:58.891Z,101324.00
2017-10-23T20:04:31.573Z,101329.80
2017-10-23T20:10:11.148Z,101329.55
2017-10-23T20:12:42.659Z,101324.31
2017-10-23T20:15:16.377Z,101327.44
2017-10-23T20:17:48.031Z,101324.82
2017-10-23T20:20:20.987Z,101331.68
2017-10-23T20:22:54.012Z,101332.22
2017-10-23T20:25:25.704Z,101333.10
2017-10-23T20:27:57.206Z,101337.97
2017-10-23T20:30:29.853Z,101336.06
2017-10-23T20:33:03.354Z,101342.22
2017-10-23T20:35:36.590Z,101343.54
2017-10-23T20:38:08.115Z,101343.49
2017-10-23T20:40:39.596Z,101339.46
2017-10-23T20:43:13.169Z,101349.57
2017-10-23T20:45:45.155Z,101359.58
2017-10-23T20:48:17.058Z,101363.09
2017-10-23T20:50:49.284Z,101365.61
2017-10-23T20:53:21.633Z,101371.08
2017-10-23T20:55:53.599Z,101370.70
2017-10-23T20:58:25.359Z,101370.09
2017-10-23T21:00:56.750Z,101363.58
2017-10-23T21:03:30.340Z,101372.34
2017-10-23T21:06:07.685Z,101373.08
2017-10-23T21:08:39.662Z,101373.48
2017-10-23T21:11:12.231Z,101382.20
2017-10-23T21:13:44.786Z,101378.22
2017-10-23T21:16:18.181Z,101375.15
2017-10-23T21:18:50.085Z,101372.97
2017-10-23T21:21:21.483Z,101375.58
2017-10-23T21:23:53.017Z,101379.45
2017-10-23T21:26:24.520Z,101382.52
2017-10-23T21:28:56.147Z,101383.06
2017-10-23T21:31:28.722Z,101385.59
2017-10-23T21:34:04.260Z,101385.28
2017-10-23T21:36:35.599Z,101384.50
2017-10-23T21:39:07.075Z,101384.05
2017-10-23T21:41:38.818Z,101387.98
2017-10-23T21:44:12.785Z,101385.80
2017-10-23T21:46:53.104Z,101390.64
2017-10-23T21:49:24.492Z,101391.30
2017-10-23T21:51:56.203Z,101392.53
2017-10-23T21:54:27.743Z,101390.84
2017-10-23T21:56:59.913Z,101388.77
2017-10-23T21:59:32.875Z,101390.53
2017-10-23T22:02:06.498Z,101402.14
2017-10-23T22:04:39.209Z,101395.28
2017-10-23T22:07:15.172Z,101394.85
2017-10-23T22:09:49.671Z,101393.37
2017-10-23T22:12:21.693Z,101399.13
2017-10-23T22:14:55.539Z,101406.66
2017-10-23T22:17:27.354Z,101407.58
2017-10-23T22:20:03.959Z,101397.86
2017-10-23T22:22:37.213Z,101398.70
2017-10-23T22:25:10.094Z,101400.39
2017-10-23T22:27:44.533Z,101395.05
2017-10-23T22:30:38.457Z,101392.48
2017-10-23T22:33:16.290Z,101402.60
2017-10-23T22:35:51.313Z,101401.38
2017-10-23T22:38:23.809Z,101403.23
2017-10-23T22:40:55.715Z,101398.84
2017-10-23T22:43:29.566Z,101407.34
2017-10-23T22:46:07.686Z,101403.87
2017-10-23T22:48:40.174Z,101404.89
2017-10-23T22:51:12.998Z,101401.82
2017-10-23T22:53:45.853Z,101402.70
2017-10-23T22:56:21.513Z,101398.34
2017-10-23T22:58:53.178Z,101401.48
2017-10-23T23:01:27.816Z,101400.25
2017-10-23T23:04:03.850Z,101397.61
2017-10-23T23:06:36.870Z,101406.84
2017-10-23T23:09:11.481Z,101404.55
2017-10-23T23:11:43.555Z,101401.13
2017-10-23T23:14:17.728Z,101398.98
2017-10-23T23:16:49.895Z,101402.14
2017-10-23T23:19:24.096Z,101409.16
2017-10-23T23:21:56.961Z,101415.39
2017-10-23T23:24:32.682Z,101410.22
2017-10-23T23:27:06.021Z,101412.37
2017-10-23T23:32:11.240Z,101414.17
2017-10-23T23:34:42.602Z,101407.11
2017-10-23T23:37:19.244Z,101408.00
2017-10-23T23:39:51.362Z,101405.28
2017-10-23T23:42:28.012Z,101416.48
2017-10-23T23:45:02.691Z,101415.16
2017-10-23T23:47:37.467Z,101416.55
2017-10-23T23:50:11.958Z,101418.81
2017-10-23T23:52:44.482Z,101419.19
2017-10-23T23:55:17.608Z,101414.25
2017-10-23T23:57:54.685Z,101413.80
